Time;durP1;ratioP1;P1;durP2;ratioP2;P2;SDS_P1;SDS_P2;PMS_P1;PMS_P2;Temp;Humidity;BMP_temperature;BMP_pressure;BME280_temperature;BME280_humidity;BME280_pressure;Samples;Min_cycle;Max_cycle;Signal;HPM_P1;HPM_P2
2021/07/14 00:01:48;;;;;;;19.65;12.63;;;;;;;24.32;73.78;99559.53;4861969;29;20055;-59
2021/07/14 00:04:14;;;;;;;20.50;12.43;;;;;;;24.32;74.14;99562.19;4871839;29;20148;-59
2021/07/14 00:07:08;;;;;;;18.80;12.18;;;;;;;24.32;74.08;99567.50;5073779;27;20639;-58
2021/07/14 00:09:34;;;;;;;18.08;12.88;;;;;;;24.32;74.31;99570.16;5067473;28;20037;-58
2021/07/14 00:12:03;;;;;;;27.88;12.63;;;;;;;24.32;74.38;99572.84;5067545;28;20537;-57
2021/07/14 00:17:30;;;;;;;18.65;13.02;;;;;;;24.31;73.95;99572.97;5065875;28;20514;-57
2021/07/14 00:22:40;;;;;;;23.58;12.07;;;;;;;24.28;74.39;99571.44;5066755;28;20044;-57
2021/07/14 00:25:11;;;;;;;17.08;11.40;;;;;;;24.28;74.71;99570.59;5067192;28;20040;-58
2021/07/14 00:27:39;;;;;;;23.88;11.98;;;;;;;24.25;74.90;99579.69;5067141;28;20039;-58
2021/07/14 00:30:10;;;;;;;22.45;13.10;;;;;;;24.23;75.32;99581.66;5066755;28;20124;-58
2021/07/14 00:32:36;;;;;;;27.42;13.20;;;;;;;24.20;75.60;99581.09;5067043;28;20040;-58
2021/07/14 00:35:14;;;;;;;23.38;12.95;;;;;;;24.17;75.78;99581.34;5052575;28;20041;-57
2021/07/14 00:37:39;;;;;;;19.95;13.30;;;;;;;24.15;76.18;99588.63;5066762;28;20827;-59
2021/07/14 00:40:10;;;;;;;18.75;12.73;;;;;;;24.13;76.26;99591.41;5067360;28;20163;-57
2021/07/14 00:42:36;;;;;;;28.83;13.57;;;;;;;24.12;76.52;99591.56;5066549;28;20499;-57
2021/07/14 00:45:03;;;;;;;27.13;12.95;;;;;;;24.09;76.35;99590.00;5066870;28;20079;-57
2021/07/14 00:47:32;;;;;;;22.13;13.65;;;;;;;24.08;76.45;99594.47;5067142;28;20040;-57
2021/07/14 00:49:58;;;;;;;19.15;12.63;;;;;;;24.05;76.15;99586.81;5065371;28;20064;-57
2021/07/14 00:52:23;;;;;;;21.42;13.40;;;;;;;24.08;76.49;99590.97;5065774;28;20033;-57
2021/07/14 00:54:49;;;;;;;18.05;12.82;;;;;;;24.08;76.70;99588.31;5066381;28;20118;-58
2021/07/14 00:57:17;;;;;;;23.98;12.88;;;;;;;24.07;76.52;99579.50;5066530;28;20518;-55
2021/07/14 00:59:43;;;;;;;27.75;13.07;;;;;;;24.12;76.67;99596.88;5066653;28;20106;-57
2021/07/14 01:02:08;;;;;;;19.10;13.27;;;;;;;24.13;76.93;99585.28;5065815;28;20041;-56
2021/07/14 01:04:41;;;;;;;29.45;13.80;;;;;;;24.11;76.46;99585.41;5065007;28;20037;-57
2021/07/14 01:07:36;;;;;;;24.42;13.00;;;;;;;24.14;76.28;99586.94;5071076;28;20427;-58
2021/07/14 01:10:09;;;;;;;19.13;12.90;;;;;;;24.12;76.10;99591.56;5069214;28;20057;-57
2021/07/14 01:12:55;;;;;;;19.05;13.77;;;;;;;24.09;74.78;99584.69;5084924;28;20048;-58
2021/07/14 01:15:22;;;;;;;20.40;14.30;;;;;;;24.10;73.92;99590.84;5084207;28;20044;-57
2021/07/14 01:17:53;;;;;;;23.52;13.25;;;;;;;24.10;73.75;99588.19;5076011;28;20041;-58
2021/07/14 01:20:43;;;;;;;20.38;12.95;;;;;;;24.11;73.66;99584.56;5071147;28;20037;-58
2021/07/14 01:23:30;;;;;;;21.00;13.43;;;;;;;24.08;73.71;99586.50;5070771;28;20047;-58
2021/07/14 01:26:06;;;;;;;31.05;13.88;;;;;;;24.10;73.72;99586.38;5071319;28;20052;-58
2021/07/14 01:28:34;;;;;;;19.23;12.77;;;;;;;24.11;73.80;99589.88;5072650;28;20040;-58
2021/07/14 01:31:01;;;;;;;17.50;13.85;;;;;;;24.08;73.85;99589.16;5072273;28;20067;-58
2021/07/14 01:33:39;;;;;;;24.60;14.02;;;;;;;24.07;73.95;99594.66;5072065;28;20036;-58
2021/07/14 01:36:09;;;;;;;23.38;13.18;;;;;;;24.04;74.94;99592.25;5072676;28;20090;-58
2021/07/14 01:38:35;;;;;;;26.15;13.00;;;;;;;24.01;75.21;99588.06;5073166;28;20036;-58
2021/07/14 01:41:03;;;;;;;20.65;12.55;;;;;;;23.98;75.74;99585.69;5071164;28;20502;-58
2021/07/14 01:43:33;;;;;;;20.20;12.20;;;;;;;23.98;75.93;99584.84;5054767;28;20457;-58
2021/07/14 01:46:00;;;;;;;25.60;13.50;;;;;;;23.96;76.33;99587.66;5071860;28;20044;-58
2021/07/14 01:48:27;;;;;;;24.33;13.20;;;;;;;23.96;76.63;99585.00;5071051;28;20044;-57
2021/07/14 01:50:53;;;;;;;51.80;18.65;;;;;;;23.95;76.86;99595.75;5071249;28;20102;-57
2021/07/14 01:53:20;;;;;;;28.27;13.10;;;;;;;23.96;76.98;99589.47;5071016;28;20511;-58
2021/07/14 01:55:48;;;;;;;26.17;12.13;;;;;;;23.96;77.21;99590.31;5073335;28;20037;-58
2021/07/14 01:58:15;;;;;;;23.05;13.65;;;;;;;23.93;77.25;99592.38;5069666;28;20102;-58
2021/07/14 02:00:42;;;;;;;32.60;13.10;;;;;;;23.92;77.77;99590.69;5070881;28;20040;-54
2021/07/14 02:03:18;;;;;;;24.33;13.57;;;;;;;23.90;77.86;99593.53;5071815;28;20040;-55
2021/07/14 02:05:45;;;;;;;20.50;13.00;;;;;;;23.92;77.78;99593.34;5072738;28;20052;-58
2021/07/14 02:08:12;;;;;;;23.08;13.40;;;;;;;23.92;77.72;99588.88;5070927;28;20131;-58
2021/07/14 02:10:39;;;;;;;23.33;12.93;;;;;;;23.98;77.58;99593.66;5069965;28;20064;-58
2021/07/14 02:13:05;;;;;;;26.65;12.68;;;;;;;24.00;77.82;99594.34;5070719;28;20036;-57
2021/07/14 02:15:31;;;;;;;24.77;12.95;;;;;;;23.87;77.56;99564.56;5071036;28;20040;-57
2021/07/14 02:18:09;;;;;;;19.75;13.60;;;;;;;24.04;77.59;99590.44;5070402;28;20036;-58
2021/07/14 02:20:35;;;;;;;23.17;13.27;;;;;;;24.06;77.27;99588.50;5061494;28;20044;-58
2021/07/14 02:23:04;;;;;;;26.45;13.57;;;;;;;24.09;77.24;99595.31;5071640;28;20041;-57
2021/07/14 02:25:30;;;;;;;24.50;13.13;;;;;;;24.11;77.25;99596.03;5051467;28;20036;-57
2021/07/14 02:27:56;;;;;;;19.85;12.38;;;;;;;24.13;77.19;99591.41;5071558;28;20434;-56
2021/07/14 02:30:22;;;;;;;21.95;13.60;;;;;;;24.19;77.39;99598.84;5070887;28;20036;-53
2021/07/14 02:32:52;;;;;;;24.95;13.70;;;;;;;24.23;77.10;99596.75;5070398;28;20040;-58
2021/07/14 02:35:19;;;;;;;27.05;12.52;;;;;;;24.23;76.82;99589.63;5072093;28;20063;-58
2021/07/14 02:37:50;;;;;;;19.92;12.60;;;;;;;24.24;77.06;99585.13;5071525;28;20449;-58
2021/07/14 02:40:22;;;;;;;21.60;13.25;;;;;;;24.25;76.96;99587.66;5071640;28;20507;-59
2021/07/14 02:42:47;;;;;;;22.48;13.48;;;;;;;24.27;76.80;99600.81;5069098;28;20083;-58
2021/07/14 02:45:13;;;;;;;75.55;16.55;;;;;;;24.27;76.84;99596.34;5069428;28;20459;-58
2021/07/14 02:47:41;;;;;;;23.83;12.88;;;;;;;24.31;76.86;99599.53;5070539;28;20575;-58
2021/07/14 02:50:15;;;;;;;17.93;12.63;;;;;;;24.33;76.09;99597.59;5070155;28;20040;-58
2021/07/14 02:52:44;;;;;;;22.30;14.00;;;;;;;24.34;75.15;99596.59;5069007;28;20135;-57
2021/07/14 02:55:14;;;;;;;23.63;13.75;;;;;;;24.38;75.02;99598.00;5070320;28;20162;-57
2021/07/14 02:57:40;;;;;;;26.40;13.65;;;;;;;24.41;74.55;99595.03;5070337;28;20498;-57
2021/07/14 03:00:07;;;;;;;23.48;13.75;;;;;;;24.45;73.56;99597.28;5069624;28;20132;-58
2021/07/14 03:02:33;;;;;;;24.85;13.93;;;;;;;24.49;73.53;99603.97;5070950;28;20092;-59
2021/07/14 03:04:59;;;;;;;16.85;13.57;;;;;;;24.53;73.13;99596.56;5070575;28;20072;-58
2021/07/14 03:07:26;;;;;;;22.30;12.80;;;;;;;24.56;72.87;99596.25;5070162;28;20523;-58
2021/07/14 03:09:52;;;;;;;19.63;13.05;;;;;;;24.61;72.59;99588.69;5070484;28;20396;-59
2021/07/14 03:12:20;;;;;;;17.92;12.55;;;;;;;24.64;72.48;99591.09;5069631;28;20523;-58
2021/07/14 03:14:49;;;;;;;20.38;13.35;;;;;;;24.68;72.24;99584.50;5069020;28;20047;-58
2021/07/14 03:17:16;;;;;;;19.50;14.77;;;;;;;24.72;71.60;99583.22;5069200;28;20037;-58
2021/07/14 03:19:41;;;;;;;18.35;14.43;;;;;;;24.77;71.32;99590.75;5065707;28;20052;-58
2021/07/14 03:22:08;;;;;;;49.13;16.83;;;;;;;24.81;70.99;99592.97;5069780;28;20044;-57
2021/07/14 03:24:34;;;;;;;21.08;14.50;;;;;;;24.86;69.97;99592.56;5068341;28;20044;-58
2021/07/14 03:27:02;;;;;;;25.98;14.52;;;;;;;24.94;69.55;99599.81;5068722;28;20606;-59
2021/07/14 03:29:28;;;;;;;24.95;13.68;;;;;;;24.98;69.59;99599.38;5071178;28;20055;-58
2021/07/14 03:31:54;;;;;;;22.08;13.40;;;;;;;25.01;69.09;99604.44;5069014;28;20127;-59
2021/07/14 03:34:20;;;;;;;21.92;14.18;;;;;;;25.05;68.71;99599.66;5521995;23;20116;-57
2021/07/14 03:36:48;;;;;;;21.42;13.82;;;;;;;25.10;68.60;99589.41;5013133;28;20034;-58
2021/07/14 03:39:15;;;;;;;20.37;14.17;;;;;;;25.13;68.05;99594.41;5026342;28;20056;-57
2021/07/14 03:41:41;;;;;;;26.42;14.55;;;;;;;25.18;67.78;99592.16;5028302;28;20103;-59
2021/07/14 03:44:07;;;;;;;22.08;14.77;;;;;;;25.24;66.93;99596.88;5007046;28;20483;-60
2021/07/14 03:46:33;;;;;;;23.35;14.38;;;;;;;25.30;67.09;99601.63;5028512;28;20401;-58
2021/07/14 03:48:59;;;;;;;23.83;14.20;;;;;;;25.35;66.92;99594.03;5030544;28;20047;-58
2021/07/14 03:51:25;;;;;;;19.15;13.15;;;;;;;25.40;65.80;99593.56;5023743;28;20088;-58
2021/07/14 03:53:51;;;;;;;15.20;13.07;;;;;;;25.45;66.00;99594.81;5027526;28;20053;-58
2021/07/14 03:56:21;;;;;;;18.45;13.10;;;;;;;25.49;65.41;99593.50;5031023;28;20045;-58
2021/07/14 03:58:48;;;;;;;26.58;15.18;;;;;;;25.52;64.64;99592.38;5030641;28;20073;-59
2021/07/14 04:01:17;;;;;;;31.77;14.65;;;;;;;25.58;64.67;99592.66;5030059;28;20138;-58
2021/07/14 04:03:43;;;;;;;20.58;13.40;;;;;;;25.63;64.50;99592.22;5028511;28;20111;-57
2021/07/14 04:06:10;;;;;;;20.00;12.95;;;;;;;25.67;64.52;99583.78;5028424;28;20057;-57
2021/07/14 04:09:05;;;;;;;19.80;13.52;;;;;;;25.74;63.59;99592.00;5022159;28;20101;-58
2021/07/14 04:11:31;;;;;;;18.40;12.52;;;;;;;25.81;63.51;99581.56;5009559;28;20048;-58
2021/07/14 04:13:57;;;;;;;20.45;13.85;;;;;;;25.86;63.33;99588.09;5008974;28;20112;-58
2021/07/14 04:16:22;;;;;;;25.05;14.18;;;;;;;25.91;64.20;99582.34;5030708;28;20130;-58
2021/07/14 04:18:48;;;;;;;22.50;12.82;;;;;;;25.98;63.97;99589.56;5029316;28;20471;-58
2021/07/14 04:21:14;;;;;;;16.65;12.25;;;;;;;26.03;63.90;99594.41;5029327;28;20068;-58
2021/07/14 04:23:39;;;;;;;18.67;13.82;;;;;;;26.08;64.16;99595.63;5029452;28;20459;-59
2021/07/14 04:26:05;;;;;;;23.05;12.77;;;;;;;26.13;64.50;99587.19;5029400;28;20136;-58
2021/07/14 04:28:32;;;;;;;22.67;13.00;;;;;;;26.19;64.40;99589.22;5029962;28;20099;-59
2021/07/14 04:30:59;;;;;;;20.90;12.53;;;;;;;26.25;63.37;99587.81;5029009;28;20045;-59
2021/07/14 04:33:24;;;;;;;23.67;13.30;;;;;;;26.30;63.20;99596.19;5029131;28;20051;-58
2021/07/14 04:35:50;;;;;;;22.55;13.07;;;;;;;26.35;63.15;99592.06;5025334;28;20053;-58
2021/07/14 04:38:16;;;;;;;21.88;12.98;;;;;;;26.42;62.89;99587.78;5011178;28;20053;-59
2021/07/14 04:40:43;;;;;;;19.50;12.55;;;;;;;26.47;62.38;99590.81;5029724;28;20045;-58
2021/07/14 04:43:10;;;;;;;16.67;11.82;;;;;;;26.55;62.95;99590.03;5019722;28;20069;-59
2021/07/14 04:45:37;;;;;;;17.13;11.88;;;;;;;26.60;61.45;99589.53;5012991;28;20065;-58
2021/07/14 04:48:03;;;;;;;17.13;11.90;;;;;;;26.67;60.14;99588.78;5028989;28;20664;-59
2021/07/14 04:50:30;;;;;;;20.95;11.48;;;;;;;26.72;59.81;99590.97;5028030;28;20500;-58
2021/07/14 04:52:55;;;;;;;18.08;10.75;;;;;;;26.80;58.34;99591.00;5032035;28;20099;-57
2021/07/14 04:55:21;;;;;;;14.82;11.63;;;;;;;26.88;58.95;99591.09;5033426;28;20053;-58
2021/07/14 04:57:47;;;;;;;18.42;10.48;;;;;;;26.94;58.82;99588.63;5032222;28;20076;-58
2021/07/14 05:00:16;;;;;;;23.67;16.23;;;;;;;27.05;57.33;99584.00;5032815;28;20080;-59
2021/07/14 05:02:43;;;;;;;14.60;10.75;;;;;;;27.10;57.08;99582.53;5010803;28;20050;-59
2021/07/14 05:05:09;;;;;;;19.30;11.50;;;;;;;27.17;56.85;99590.72;4994767;28;20050;-59
2021/07/14 05:07:35;;;;;;;14.27;10.00;;;;;;;27.26;58.20;99589.78;5010739;28;20123;-57
2021/07/14 05:10:01;;;;;;;16.05;10.43;;;;;;;27.33;58.47;99590.78;5010819;28;20124;-58
2021/07/14 05:12:27;;;;;;;17.42;11.13;;;;;;;27.41;58.44;99588.16;5014658;28;20518;-57
2021/07/14 05:14:52;;;;;;;14.63;9.40;;;;;;;27.48;57.54;99583.00;5022968;28;20034;-57
2021/07/14 05:17:18;;;;;;;21.70;13.75;;;;;;;27.59;56.21;99590.72;4994433;28;20486;-59
2021/07/14 05:19:44;;;;;;;22.85;10.75;;;;;;;27.65;56.29;99590.06;5028827;28;20400;-60
2021/07/14 05:22:13;;;;;;;15.32;9.90;;;;;;;27.74;55.02;99589.91;5024825;28;20043;-59
2021/07/14 05:24:40;;;;;;;16.27;10.00;;;;;;;27.85;54.44;99596.78;5048786;28;20504;-60
2021/07/14 05:27:05;;;;;;;14.98;9.77;;;;;;;27.94;54.63;99592.28;5033659;28;20132;-59
2021/07/14 05:29:31;;;;;;;15.38;10.40;;;;;;;28.02;54.61;99589.63;5022340;28;20466;-61
2021/07/14 05:31:57;;;;;;;15.63;9.90;;;;;;;28.12;52.57;99598.34;5012738;28;20065;-58
2021/07/14 05:34:22;;;;;;;13.18;9.35;;;;;;;28.22;52.63;99594.50;5006577;28;20136;-58
2021/07/14 05:36:48;;;;;;;21.85;9.55;;;;;;;28.33;52.76;99587.13;5005785;28;20096;-57
2021/07/14 05:39:14;;;;;;;15.35;8.20;;;;;;;28.44;52.28;99590.31;5012811;28;20038;-57
2021/07/14 05:41:41;;;;;;;15.23;8.07;;;;;;;28.55;51.56;99589.97;5003394;28;20045;-58
2021/07/14 05:44:07;;;;;;;10.90;6.57;;;;;;;28.64;51.65;99583.59;5005349;28;20035;-57
2021/07/14 05:46:33;;;;;;;13.35;8.70;;;;;;;28.77;50.18;99579.59;4993563;28;20536;-58
2021/07/14 05:49:02;;;;;;;14.30;7.85;;;;;;;28.87;48.63;99589.09;5009763;28;20807;-59
2021/07/14 05:51:28;;;;;;;;;;;;;;;28.98;48.64;99582.53;5010972;28;20041;-58
2021/07/14 05:53:53;;;;;;;9.52;4.95;;;;;;;29.07;49.01;99589.50;5017746;28;20476;-59
2021/07/14 05:56:19;;;;;;;10.35;7.57;;;;;;;29.18;46.55;99588.31;5014095;28;20049;-59
2021/07/14 05:58:45;;;;;;;9.70;7.00;;;;;;;29.28;46.19;99584.41;5029300;28;20191;-60
2021/07/14 06:01:10;;;;;;;9.95;7.05;;;;;;;29.37;45.50;99588.72;4996712;28;20125;-59
2021/07/14 06:03:36;;;;;;;7.55;6.00;;;;;;;29.50;45.95;99588.19;5005712;28;20042;-58
2021/07/14 06:06:02;;;;;;;8.93;6.65;;;;;;;29.63;45.92;99583.06;5007612;28;20066;-59
2021/07/14 06:08:28;;;;;;;8.68;6.28;;;;;;;29.71;44.60;99580.34;5005779;28;20057;-60
2021/07/14 06:10:54;;;;;;;10.88;6.60;;;;;;;29.85;44.57;99576.88;5002528;28;20038;-59
2021/07/14 06:13:20;;;;;;;3.25;2.95;;;;;;;29.94;47.16;99580.38;5003688;28;20034;-60
2021/07/14 06:15:46;;;;;;;8.60;4.35;;;;;;;30.01;47.26;99578.63;5002449;28;20053;-58
2021/07/14 06:18:11;;;;;;;6.25;3.15;;;;;;;30.13;46.49;99574.53;5007167;28;20072;-59
2021/07/14 06:20:38;;;;;;;4.50;3.00;;;;;;;30.25;47.18;99574.94;5006885;28;20046;-59
2021/07/14 06:23:04;;;;;;;3.08;2.78;;;;;;;30.34;47.88;99570.31;5006215;28;20046;-59
2021/07/14 06:25:29;;;;;;;9.27;6.00;;;;;;;30.47;45.27;99573.22;5007980;28;20053;-59
2021/07/14 06:27:57;;;;;;;15.55;7.00;;;;;;;30.61;43.94;99569.75;5001303;28;20144;-59
2021/07/14 06:30:22;;;;;;;9.68;5.97;;;;;;;30.74;43.29;99567.25;5004122;28;20041;-60
2021/07/14 06:32:52;;;;;;;6.88;3.97;;;;;;;30.91;44.23;99567.91;5008074;28;20045;-59
2021/07/14 06:35:19;;;;;;;21.80;7.00;;;;;;;31.05;43.29;99569.75;5006424;28;20056;-60
2021/07/14 06:37:46;;;;;;;11.60;6.65;;;;;;;31.23;43.03;99569.38;5004991;28;20050;-58
2021/07/14 06:40:12;;;;;;;7.60;3.80;;;;;;;31.46;43.02;99559.31;5002409;28;20573;-60
2021/07/14 06:42:39;;;;;;;5.15;3.10;;;;;;;31.89;43.03;99558.34;5002787;28;20048;-58
2021/07/14 06:45:06;;;;;;;10.05;6.05;;;;;;;32.48;40.07;99560.75;5006649;28;20200;-59
2021/07/14 06:47:32;;;;;;;8.15;5.97;;;;;;;33.18;38.58;99559.75;5002012;28;20504;-60
2021/07/14 06:49:57;;;;;;;8.13;5.00;;;;;;;34.06;37.01;99563.28;5001325;28;20217;-59
2021/07/14 06:52:23;;;;;;;10.93;6.30;;;;;;;34.92;35.62;99562.19;5001363;28;20046;-59
2021/07/14 06:54:49;;;;;;;12.77;6.03;;;;;;;35.68;33.61;99567.75;5011092;28;20392;-59
2021/07/14 06:57:15;;;;;;;9.85;4.22;;;;;;;36.35;32.56;99568.94;5012098;28;20406;-59
2021/07/14 06:59:41;;;;;;;3.30;3.00;;;;;;;36.48;33.33;99568.81;5010121;28;20068;-59
2021/07/14 07:02:07;;;;;;;7.60;6.70;;;;;;;35.73;32.65;99565.22;5013842;28;20464;-59
2021/07/14 07:04:33;;;;;;;7.05;3.88;;;;;;;36.42;32.97;99564.28;5010040;28;20049;-60
2021/07/14 07:06:59;;;;;;;7.15;6.55;;;;;;;37.39;30.62;99565.31;5008788;28;20100;-59
2021/07/14 07:09:25;;;;;;;7.82;4.28;;;;;;;38.66;29.98;99570.25;5004792;28;20639;-59
2021/07/14 07:11:51;;;;;;;7.30;6.57;;;;;;;39.71;28.12;99575.44;5005162;28;20038;-59
2021/07/14 07:14:18;;;;;;;18.25;7.57;;;;;;;40.57;26.71;99575.00;5001845;28;20773;-59
2021/07/14 07:16:45;;;;;;;9.30;7.57;;;;;;;41.33;25.07;99573.34;5004846;28;20089;-58
2021/07/14 07:19:10;;;;;;;5.55;4.22;;;;;;;42.00;25.19;99580.34;5006699;28;20522;-59
2021/07/14 07:21:36;;;;;;;9.25;7.40;;;;;;;42.67;24.05;99575.13;5002020;28;20107;-58
2021/07/14 07:24:03;;;;;;;7.68;7.07;;;;;;;43.39;22.48;99572.47;5003861;28;20073;-59
2021/07/14 07:26:29;;;;;;;4.43;4.00;;;;;;;43.81;23.07;99568.75;5008204;28;20057;-60
2021/07/14 07:29:04;;;;;;;7.53;6.93;;;;;;;44.16;21.05;99568.78;5000805;28;20046;-60
2021/07/14 07:31:30;;;;;;;11.93;7.72;;;;;;;44.57;20.50;99575.06;5002257;28;20049;-58
2021/07/14 07:33:58;;;;;;;7.30;6.80;;;;;;;44.67;19.96;99566.84;5003445;28;20452;-60
2021/07/14 07:36:24;;;;;;;4.90;4.50;;;;;;;44.90;20.88;99572.81;5006136;28;20050;-62
2021/07/14 07:38:50;;;;;;;11.07;4.47;;;;;;;45.42;20.99;99575.91;5001537;28;20034;-61
2021/07/14 07:41:17;;;;;;;4.28;3.88;;;;;;;45.90;20.55;99573.41;5000483;28;20057;-59
2021/07/14 07:43:43;;;;;;;8.60;7.80;;;;;;;46.47;18.91;99578.13;5004497;28;20512;-60
2021/07/14 07:46:09;;;;;;;13.18;7.22;;;;;;;46.48;18.04;99576.22;5004873;28;20041;-62
2021/07/14 07:48:36;;;;;;;6.05;4.28;;;;;;;46.70;19.17;99576.53;5004001;28;20049;-61
2021/07/14 07:51:03;;;;;;;6.80;5.32;;;;;;;47.23;18.62;99571.78;4984415;28;20053;-61
2021/07/14 07:53:29;;;;;;;6.20;4.60;;;;;;;45.75;20.31;99570.75;5003814;28;20099;-61
2021/07/14 07:55:55;;;;;;;12.05;8.35;;;;;;;43.91;20.94;99563.31;5008322;28;20300;-58
2021/07/14 07:58:21;;;;;;;6.97;5.00;;;;;;;43.56;21.66;99555.84;5004834;28;20045;-59
2021/07/14 08:00:47;;;;;;;5.60;5.10;;;;;;;44.06;21.45;99559.75;5000104;28;20084;-58
2021/07/14 08:03:13;;;;;;;6.88;6.25;;;;;;;44.57;20.50;99553.13;5004934;28;20928;-60
2021/07/14 08:05:39;;;;;;;4.88;4.40;;;;;;;45.50;19.85;99560.75;5003768;28;20058;-60
2021/07/14 08:08:05;;;;;;;6.63;5.97;;;;;;;46.09;19.41;99552.34;5006312;28;20420;-60
2021/07/14 08:10:31;;;;;;;6.13;5.13;;;;;;;46.19;19.75;99557.78;5009226;28;20077;-60
2021/07/14 08:12:57;;;;;;;4.50;4.20;;;;;;;45.93;19.60;99557.16;4999686;28;20042;-58
2021/07/14 08:15:23;;;;;;;11.73;9.02;;;;;;;44.46;20.62;99548.75;5002177;28;20033;-59
2021/07/14 08:17:49;;;;;;;8.05;7.35;;;;;;;43.47;21.68;99543.75;5009972;28;20046;-60
2021/07/14 08:20:15;;;;;;;8.15;7.32;;;;;;;43.99;21.27;99537.25;4999890;28;20042;-60
2021/07/14 08:22:41;;;;;;;9.85;8.63;;;;;;;45.06;19.56;99545.03;4998590;28;20046;-61
2021/07/14 08:25:09;;;;;;;11.70;7.40;;;;;;;44.39;19.46;99542.72;5001747;28;20039;-58
2021/07/14 08:27:36;;;;;;;7.50;5.68;;;;;;;42.51;22.24;99526.88;5009388;28;20133;-60
2021/07/14 08:30:04;;;;;;;4.40;3.70;;;;;;;41.41;24.27;99529.19;5009814;28;20045;-61
2021/07/14 08:32:30;;;;;;;18.60;8.25;;;;;;;40.48;25.42;99524.72;5007666;28;21473;-59
2021/07/14 08:34:56;;;;;;;15.60;7.70;;;;;;;39.74;26.39;99515.88;5004848;28;20053;-59
2021/07/14 08:37:23;;;;;;;4.57;4.18;;;;;;;41.14;25.45;99522.91;5011661;28;20070;-61
2021/07/14 08:39:50;;;;;;;5.50;4.37;;;;;;;43.10;23.08;99519.28;5006147;28;20050;-60
2021/07/14 08:42:17;;;;;;;11.37;8.90;;;;;;;44.53;20.72;99523.78;5005988;28;20056;-60
2021/07/14 08:44:43;;;;;;;6.07;5.35;;;;;;;45.47;20.66;99522.88;5009514;28;20371;-59
2021/07/14 08:47:09;;;;;;;9.82;8.85;;;;;;;46.19;18.36;99523.94;5014925;28;20037;-59
2021/07/14 08:49:43;;;;;;;28.30;7.78;;;;;;;46.92;18.12;99526.47;5002789;28;20583;-59
2021/07/14 08:52:09;;;;;;;8.73;7.88;;;;;;;47.29;15.98;99523.78;5003724;28;20047;-59
2021/07/14 08:54:41;;;;;;;6.85;6.25;;;;;;;47.07;16.14;99518.84;5007578;28;20038;-58
2021/07/14 08:57:07;;;;;;;19.48;6.35;;;;;;;45.09;19.18;99517.00;5003273;28;20505;-58
2021/07/14 08:59:33;;;;;;;6.30;5.72;;;;;;;45.29;20.07;99516.06;5013057;28;20048;-58
2021/07/14 09:01:59;;;;;;;5.72;5.28;;;;;;;46.42;19.04;99512.16;5004671;28;20042;-59
2021/07/14 09:04:24;;;;;;;6.03;5.53;;;;;;;47.26;18.38;99513.34;5005542;28;20034;-58
2021/07/14 09:06:50;;;;;;;5.95;5.50;;;;;;;47.91;17.97;99511.50;5003535;28;20125;-59
2021/07/14 09:09:16;;;;;;;12.02;5.95;;;;;;;48.32;17.50;99510.78;5010893;28;20085;-59
2021/07/14 09:11:57;;;;;;;28.20;9.73;;;;;;;48.76;16.25;99501.97;5021800;28;20068;-59
2021/07/14 09:14:33;;;;;;;11.38;7.00;;;;;;;49.14;16.68;99508.06;5007099;28;20034;-59
2021/07/14 09:17:19;;;;;;;15.80;7.43;;;;;;;49.32;16.16;99509.00;5003718;28;20054;-59
2021/07/14 09:19:45;;;;;;;;;;;;;;;49.57;16.30;99503.72;5006555;28;20046;-59
2021/07/14 09:22:19;;;;;;;12.60;6.97;;;;;;;49.99;15.92;99507.09;5003282;28;20382;-59
2021/07/14 09:24:45;;;;;;;12.18;7.20;;;;;;;50.22;15.73;99510.66;5002816;28;20069;-59
2021/07/14 09:27:28;;;;;;;11.17;8.50;;;;;;;50.44;15.09;99510.63;5011507;28;20468;-60
2021/07/14 09:30:13;;;;;;;8.15;7.38;;;;;;;50.42;15.35;99507.34;5025926;28;20037;-60
2021/07/14 09:32:45;;;;;;;10.32;9.63;;;;;;;50.55;14.73;99503.69;5032821;28;20585;-60
2021/07/14 09:35:10;;;;;;;7.05;6.55;;;;;;;50.90;14.76;99503.78;5027147;28;20060;-60
2021/07/14 09:37:37;;;;;;;8.83;5.73;;;;;;;49.45;15.85;99503.47;5011584;28;20037;-60
2021/07/14 09:40:14;;;;;;;7.28;5.13;;;;;;;47.67;17.36;99496.22;5029193;28;20524;-59
2021/07/14 09:42:41;;;;;;;;;;;;;;;46.23;18.77;99498.34;5026360;28;20045;-59
2021/07/14 09:45:07;;;;;;;8.20;5.35;;;;;;;45.01;20.07;99489.31;5029902;28;20018;-58
2021/07/14 09:47:35;;;;;;;6.22;5.20;;;;;;;43.94;21.17;99474.25;5031540;28;20128;-59
2021/07/14 09:50:01;;;;;;;6.00;5.43;;;;;;;43.15;21.92;99477.41;5007380;28;20514;-57
2021/07/14 09:52:26;;;;;;;6.68;6.15;;;;;;;44.59;20.56;99474.13;5027230;28;20053;-59
2021/07/14 09:55:05;;;;;;;10.82;8.93;;;;;;;46.45;18.87;99475.00;5012451;28;20515;-60
2021/07/14 09:57:31;;;;;;;11.50;6.85;;;;;;;47.62;17.98;99471.47;5027028;28;20424;-58
2021/07/14 09:59:57;;;;;;;7.30;6.70;;;;;;;48.21;17.32;99463.25;5006658;28;20037;-59
2021/07/14 10:02:22;;;;;;;11.23;9.98;;;;;;;48.94;15.66;99472.59;5002710;28;20128;-60
2021/07/14 10:04:49;;;;;;;10.13;9.18;;;;;;;49.61;14.74;99463.28;5004013;28;20045;-59
2021/07/14 10:07:18;;;;;;;;;;;;;;;50.06;15.53;99474.28;5006548;28;20624;-61
2021/07/14 10:09:45;;;;;;;10.32;9.35;;;;;;;50.13;13.35;99460.03;5032292;28;19921;-61
2021/07/14 10:12:30;;;;;;;10.90;9.55;;;;;;;49.51;13.39;99449.72;5031428;28;20076;-61
2021/07/14 10:14:58;;;;;;;10.32;9.38;;;;;;;49.38;13.71;99450.56;5031290;28;20103;-61
2021/07/14 10:17:44;;;;;;;10.82;9.10;;;;;;;49.18;13.83;99443.56;5032343;28;20551;-59
2021/07/14 10:20:31;;;;;;;10.35;9.55;;;;;;;49.34;13.72;99438.50;5024355;28;20081;-61
2021/07/14 10:23:06;;;;;;;9.00;8.40;;;;;;;48.40;13.67;99449.41;4997810;28;20412;-60
2021/07/14 10:25:33;;;;;;;10.63;9.57;;;;;;;47.91;14.15;99426.03;5009149;28;20101;-59
2021/07/14 10:28:00;;;;;;;13.93;9.95;;;;;;;48.49;14.41;99428.25;4997684;28;20046;-62
2021/07/14 10:30:26;;;;;;;10.40;9.60;;;;;;;48.94;14.00;99429.22;4994149;28;20046;-61
2021/07/14 10:32:53;;;;;;;7.88;7.07;;;;;;;49.49;15.21;99429.03;5007280;28;20034;-60
2021/07/14 10:35:27;;;;;;;10.43;9.40;;;;;;;48.91;13.99;99424.31;5011316;28;20049;-61
2021/07/14 10:38:02;;;;;;;10.23;9.30;;;;;;;48.71;14.31;99420.06;5008151;28;20486;-60
2021/07/14 10:40:28;;;;;;;9.25;8.55;;;;;;;48.74;14.28;99422.19;5011421;28;20049;-62
2021/07/14 10:42:55;;;;;;;10.00;9.00;;;;;;;47.62;14.37;99417.19;5026809;28;20045;-61
2021/07/14 10:45:21;;;;;;;9.52;8.73;;;;;;;46.84;14.90;99409.56;5013200;28;20077;-61
2021/07/14 10:47:48;;;;;;;8.90;8.20;;;;;;;46.48;15.48;99408.38;5012493;28;20073;-60
2021/07/14 10:50:17;;;;;;;9.02;8.32;;;;;;;46.94;15.17;99405.88;4994934;28;20603;-64
2021/07/14 10:52:44;;;;;;;8.02;7.03;;;;;;;47.55;15.77;99398.28;4992410;28;20779;-61
2021/07/14 10:55:13;;;;;;;10.45;5.97;;;;;;;48.56;15.89;99405.75;5022963;28;20073;-61
2021/07/14 10:57:39;;;;;;;13.27;11.45;;;;;;;48.89;13.73;99398.16;5030422;28;20047;-60
2021/07/14 11:00:07;;;;;;;9.87;8.97;;;;;;;49.05;13.46;99396.63;5029603;28;20411;-61
2021/07/14 11:02:45;;;;;;;13.00;9.38;;;;;;;49.11;13.25;99381.59;5030784;28;20095;-60
2021/07/14 11:05:12;;;;;;;10.90;9.82;;;;;;;49.37;13.56;99384.53;5019934;28;20040;-60
2021/07/14 11:07:43;;;;;;;7.85;6.68;;;;;;;49.76;14.42;99384.66;5031947;28;20087;-62
2021/07/14 11:10:25;;;;;;;8.63;7.03;;;;;;;49.81;14.47;99379.00;5031097;28;20152;-58
2021/07/14 11:12:52;;;;;;;9.75;8.93;;;;;;;50.52;13.56;99384.44;5031247;28;20056;-61
2021/07/14 11:15:35;;;;;;;10.35;9.35;;;;;;;50.57;12.30;99368.50;5030213;28;20045;-58
2021/07/14 11:18:20;;;;;;;18.90;11.73;;;;;;;50.36;12.88;99364.69;5008883;28;20051;-60
2021/07/14 11:20:45;;;;;;;7.55;6.70;;;;;;;50.79;14.07;99360.06;4999512;28;20543;-61
2021/07/14 11:23:22;;;;;;;11.73;8.90;;;;;;;51.14;12.84;99373.94;5004071;28;20062;-60
2021/07/14 11:25:49;;;;;;;9.52;8.75;;;;;;;50.25;12.12;99369.72;5004511;28;20045;-61
2021/07/14 11:28:15;;;;;;;11.65;10.45;;;;;;;50.21;12.17;99367.91;5016774;28;20527;-60
2021/07/14 11:30:46;;;;;;;9.50;8.67;;;;;;;49.52;12.26;99349.06;5007014;28;20048;-60
2021/07/14 11:33:23;;;;;;;38.63;23.63;;;;;;;48.70;12.83;99354.09;5018306;28;20066;-60
2021/07/14 11:36:02;;;;;;;11.43;7.97;;;;;;;48.04;13.26;99340.91;5007985;28;20068;-61